Time;durP1;ratioP1;P1;durP2;ratioP2;P2;SDS_P1;SDS_P2;PMS_P1;PMS_P2;Temp;Humidity;BMP_temperature;BMP_pressure;BME280_temperature;BME280_humidity;BME280_pressure;Samples;Min_cycle;Max_cycle;Signal;HPM_P1;HPM_P2
2022/09/15 00:01:06;;;;;;;;;;;21.40;68.70;;;;;;5014985;28;827;-66
2022/09/15 00:03:31;;;;;;;;;;;21.40;68.70;;;;;;5015068;28;852;-66
2022/09/15 00:05:57;;;;;;;;;;;21.40;68.70;;;;;;5015049;28;851;-66
2022/09/15 00:08:22;;;;;;;;;;;21.40;68.70;;;;;;4993505;28;1283;-66
2022/09/15 00:10:49;;;;;;;;;;;21.40;68.70;;;;;;4995169;28;800;-66
2022/09/15 00:13:14;;;;;;;;;;;21.40;68.70;;;;;;4978112;28;801;-66
2022/09/15 00:15:40;;;;;;;;;;;21.40;68.80;;;;;;4976753;28;1970;-66
2022/09/15 00:18:06;;;;;;;;;;;21.40;68.70;;;;;;4977621;28;1317;-66
2022/09/15 00:20:31;;;;;;;;;;;21.40;68.70;;;;;;4994768;28;800;-66
2022/09/15 00:22:56;;;;;;;;;;;21.40;68.70;;;;;;4995240;28;840;-67
2022/09/15 00:25:22;;;;;;;;;;;21.40;68.70;;;;;;4995169;28;847;-66
2022/09/15 00:27:47;;;;;;;;;;;21.40;68.70;;;;;;4997885;28;1355;-66
2022/09/15 00:30:13;;;;;;;;;;;21.40;68.80;;;;;;5010792;28;1857;-66
2022/09/15 00:32:38;;;;;;;;;;;21.40;68.80;;;;;;5013022;28;1168;-66
2022/09/15 00:35:04;;;;;;;;;;;21.40;68.80;;;;;;5013825;28;1906;-66
2022/09/15 00:37:29;;;;;;;;;;;21.40;68.80;;;;;;5013346;28;1916;-66
2022/09/15 00:39:55;;;;;;;;;;;21.40;68.80;;;;;;5013177;28;1108;-66
2022/09/15 00:42:20;;;;;;;;;;;21.40;68.80;;;;;;5014437;28;1119;-66
2022/09/15 00:44:47;;;;;;;;;;;21.40;68.80;;;;;;4996997;28;993;-66
2022/09/15 00:47:13;;;;;;;;;;;21.40;68.80;;;;;;4996803;28;974;-66
2022/09/15 00:49:38;;;;;;;;;;;21.40;68.80;;;;;;4996366;28;1176;-67
2022/09/15 00:52:11;;;;;;;;;;;21.40;68.80;;;;;;5014517;28;780;-66
2022/09/15 00:54:38;;;;;;;;;;;21.40;68.80;;;;;;4996304;28;1894;-66
2022/09/15 00:57:05;;;;;;;;;;;21.40;68.90;;;;;;4996592;28;812;-66
2022/09/15 00:59:31;;;;;;;;;;;21.40;68.80;;;;;;4996574;28;1257;-66
2022/09/15 01:02:03;;;;;;;;;;;21.40;68.80;;;;;;4996681;28;1091;-66
2022/09/15 01:04:28;;;;;;;;;;;21.40;68.80;;;;;;4996649;28;1124;-66
2022/09/15 01:06:55;;;;;;;;;;;21.40;68.90;;;;;;5013739;28;892;-66
2022/09/15 01:09:22;;;;;;;;;;;21.40;68.90;;;;;;4995532;28;1234;-66
2022/09/15 01:11:48;;;;;;;;;;;21.40;68.90;;;;;;4996150;28;1026;-66
2022/09/15 01:14:13;;;;;;;;;;;21.40;68.80;;;;;;5013990;28;1017;-66
2022/09/15 01:16:41;;;;;;;;;;;21.40;68.90;;;;;;5013830;28;1964;-66
2022/09/15 01:19:25;;;;;;;;;;;21.40;68.90;;;;;;5013349;28;1193;-66
2022/09/15 01:21:54;;;;;;;;;;;21.40;68.90;;;;;;5013606;28;891;-66
2022/09/15 01:24:38;;;;;;;;;;;21.40;68.90;;;;;;4995818;28;883;-66
2022/09/15 01:27:13;;;;;;;;;;;21.40;68.90;;;;;;5013757;28;772;-66
2022/09/15 01:29:44;;;;;;;;;;;21.40;68.90;;;;;;5013297;28;1289;-66
2022/09/15 01:35:16;;;;;;;;;;;21.40;68.90;;;;;;5013262;28;1906;-66
2022/09/15 01:37:45;;;;;;;;;;;21.40;68.90;;;;;;5013128;28;1280;-65
2022/09/15 01:40:11;;;;;;;;;;;21.40;68.90;;;;;;4994976;28;804;-65
2022/09/15 01:42:36;;;;;;;;;;;21.40;68.90;;;;;;4979709;28;1270;-66
2022/09/15 01:45:04;;;;;;;;;;;21.40;68.90;;;;;;4992313;28;1158;-66
2022/09/15 01:47:29;;;;;;;;;;;21.40;69.20;;;;;;4993539;28;883;-66
2022/09/15 01:50:05;;;;;;;;;;;21.40;68.90;;;;;;4976029;28;996;-66
2022/09/15 01:52:30;;;;;;;;;;;21.40;69.00;;;;;;4991932;28;911;-66
2022/09/15 01:54:56;;;;;;;;;;;21.40;68.90;;;;;;4993682;28;1995;-66
2022/09/15 01:57:22;;;;;;;;;;;21.40;68.90;;;;;;5009557;28;1897;-66
2022/09/15 01:59:47;;;;;;;;;;;21.40;69.00;;;;;;4992088;28;1313;-67
2022/09/15 02:02:14;;;;;;;;;;;21.40;69.00;;;;;;4993597;28;1257;-67
2022/09/15 02:04:45;;;;;;;;;;;21.40;68.90;;;;;;5010957;28;1487;-67
2022/09/15 02:07:12;;;;;;;;;;;21.40;68.90;;;;;;5012025;28;1241;-68
2022/09/15 02:09:53;;;;;;;;;;;21.40;68.90;;;;;;4988213;28;1324;-69
2022/09/15 02:12:20;;;;;;;;;;;21.40;69.00;;;;;;4991259;28;1249;-68
2022/09/15 02:14:49;;;;;;;;;;;21.40;68.90;;;;;;4991470;28;1930;-68
2022/09/15 02:17:16;;;;;;;;;;;21.40;69.00;;;;;;4994696;28;1194;-68
2022/09/15 02:19:43;;;;;;;;;;;21.40;69.00;;;;;;4993578;28;1303;-67
2022/09/15 02:22:22;;;;;;;;;;;21.40;69.00;;;;;;5011998;28;1252;-67
2022/09/15 02:25:04;;;;;;;;;;;21.40;69.00;;;;;;4992648;28;1280;-68
2022/09/15 02:27:31;;;;;;;;;;;21.40;69.00;;;;;;4993086;28;1344;-68
2022/09/15 02:29:57;;;;;;;;;;;21.40;69.00;;;;;;5011735;28;1271;-67
2022/09/15 02:32:23;;;;;;;;;;;21.40;69.00;;;;;;4996112;28;1375;-68
2022/09/15 02:34:50;;;;;;;;;;;21.40;69.00;;;;;;4994932;28;1910;-68
2022/09/15 02:37:16;;;;;;;;;;;21.40;69.00;;;;;;4995121;28;1273;-69
2022/09/15 02:39:42;;;;;;;;;;;21.40;69.10;;;;;;4997510;28;1271;-70
2022/09/15 02:42:08;;;;;;;;;;;21.40;69.00;;;;;;4998873;28;1234;-69
2022/09/15 02:44:34;;;;;;;;;;;21.40;69.10;;;;;;5015721;28;1268;-69
2022/09/15 02:47:00;;;;;;;;;;;21.40;69.00;;;;;;5015845;28;1280;-68
2022/09/15 02:49:26;;;;;;;;;;;21.40;69.10;;;;;;4997512;28;1284;-68
2022/09/15 02:51:51;;;;;;;;;;;21.40;69.10;;;;;;5015358;28;1276;-68
2022/09/15 02:54:17;;;;;;;;;;;21.40;69.10;;;;;;5015494;28;1205;-69
2022/09/15 02:56:42;;;;;;;;;;;21.40;69.10;;;;;;5015075;28;1950;-69
2022/09/15 02:59:08;;;;;;;;;;;21.40;69.10;;;;;;5014940;28;1368;-68
2022/09/15 03:01:33;;;;;;;;;;;21.40;69.10;;;;;;4997720;28;1221;-68
2022/09/15 03:03:59;;;;;;;;;;;21.40;69.10;;;;;;5014696;28;1178;-67
2022/09/15 03:06:27;;;;;;;;;;;21.40;69.10;;;;;;4997624;28;1197;-68
2022/09/15 03:08:53;;;;;;;;;;;21.40;69.10;;;;;;5014493;28;1316;-68
2022/09/15 03:11:19;;;;;;;;;;;21.40;69.20;;;;;;4997088;28;1253;-68
2022/09/15 03:13:45;;;;;;;;;;;21.40;69.10;;;;;;5015277;28;1217;-69
2022/09/15 03:16:11;;;;;;;;;;;21.40;69.20;;;;;;5015862;28;1910;-68
2022/09/15 03:18:37;;;;;;;;;;;21.40;69.10;;;;;;4997332;28;1319;-67
2022/09/15 03:21:03;;;;;;;;;;;21.40;69.10;;;;;;4998264;28;1327;-68
2022/09/15 03:23:28;;;;;;;;;;;21.40;69.20;;;;;;5015829;28;1153;-68
2022/09/15 03:25:54;;;;;;;;;;;21.40;69.20;;;;;;5015726;28;1224;-68
2022/09/15 03:28:19;;;;;;;;;;;21.40;69.20;;;;;;5014322;28;1280;-68
2022/09/15 03:30:45;;;;;;;;;;;21.40;69.90;;;;;;5014967;28;1253;-68
2022/09/15 03:33:11;;;;;;;;;;;21.40;69.20;;;;;;5014599;28;1193;-68
2022/09/15 03:35:36;;;;;;;;;;;21.40;69.20;;;;;;4996724;28;1898;-68
2022/09/15 03:38:02;;;;;;;;;;;21.40;69.20;;;;;;4996716;28;1270;-68
2022/09/15 03:40:28;;;;;;;;;;;21.40;69.20;;;;;;5013634;28;1212;-68
2022/09/15 03:42:53;;;;;;;;;;;21.40;69.20;;;;;;5014345;28;1232;-67
2022/09/15 03:45:18;;;;;;;;;;;21.40;69.20;;;;;;5014593;28;1291;-69
2022/09/15 03:47:44;;;;;;;;;;;21.40;69.20;;;;;;5010906;28;1952;-69
2022/09/15 03:50:09;;;;;;;;;;;21.40;69.20;;;;;;5013430;28;1131;-68
2022/09/15 03:52:35;;;;;;;;;;;21.40;69.20;;;;;;5015601;28;1091;-68
2022/09/15 03:55:00;;;;;;;;;;;21.40;70.00;;;;;;5015117;28;1952;-68
2022/09/15 03:57:26;;;;;;;;;;;21.40;69.20;;;;;;5015118;28;1103;-68
2022/09/15 03:59:51;;;;;;;;;;;21.40;69.30;;;;;;5014687;28;1187;-68
2022/09/15 04:02:16;;;;;;;;;;;21.40;69.20;;;;;;5015373;28;1022;-68
2022/09/15 04:04:45;;;;;;;;;;;21.40;69.20;;;;;;5014923;28;1360;-68
2022/09/15 04:07:10;;;;;;;;;;;21.40;69.20;;;;;;5015160;28;1191;-68
2022/09/15 04:09:36;;;;;;;;;;;21.40;69.20;;;;;;5014646;28;1285;-68
2022/09/15 04:12:02;;;;;;;;;;;21.40;69.30;;;;;;5014726;28;769;-67
2022/09/15 04:14:28;;;;;;;;;;;21.40;69.30;;;;;;5014997;28;902;-67
2022/09/15 04:16:53;;;;;;;;;;;21.40;69.20;;;;;;5015133;28;1952;-68
2022/09/15 04:19:19;;;;;;;;;;;21.40;69.30;;;;;;5014165;28;1188;-67
2022/09/15 04:21:46;;;;;;;;;;;21.40;69.30;;;;;;5014983;28;819;-67
2022/09/15 04:24:12;;;;;;;;;;;21.40;69.30;;;;;;5015021;28;883;-67
2022/09/15 04:26:37;;;;;;;;;;;21.40;69.30;;;;;;5014381;28;855;-67
2022/09/15 04:29:03;;;;;;;;;;;21.40;69.30;;;;;;4993380;28;1460;-67
2022/09/15 04:31:28;;;;;;;;;;;21.40;69.30;;;;;;4996804;28;1209;-67
2022/09/15 04:33:54;;;;;;;;;;;21.40;69.30;;;;;;5014513;28;858;-67
2022/09/15 04:36:21;;;;;;;;;;;21.40;69.30;;;;;;5014851;28;1975;-68
2022/09/15 04:38:46;;;;;;;;;;;21.40;69.40;;;;;;4997817;28;2195;-68
2022/09/15 04:41:12;;;;;;;;;;;21.40;69.40;;;;;;4996669;28;1339;-68
2022/09/15 04:43:37;;;;;;;;;;;21.40;69.30;;;;;;5014257;28;1275;-68
2022/09/15 04:46:03;;;;;;;;;;;21.40;69.30;;;;;;5014290;28;1355;-68
2022/09/15 04:48:28;;;;;;;;;;;21.40;69.30;;;;;;5013474;28;1352;-68
2022/09/15 04:50:55;;;;;;;;;;;21.40;69.30;;;;;;4996966;28;802;-68
2022/09/15 04:53:21;;;;;;;;;;;21.40;69.40;;;;;;4997085;28;1445;-68
2022/09/15 04:55:46;;;;;;;;;;;21.40;69.40;;;;;;4996355;28;1931;-68
2022/09/15 04:58:12;;;;;;;;;;;21.40;69.40;;;;;;5013289;28;1347;-68
2022/09/15 05:00:41;;;;;;;;;;;21.40;69.40;;;;;;4996131;28;800;-68
2022/09/15 05:03:07;;;;;;;;;;;21.40;69.40;;;;;;5014232;28;843;-68
2022/09/15 05:05:33;;;;;;;;;;;21.40;69.40;;;;;;5014283;28;804;-67
2022/09/15 05:07:59;;;;;;;;;;;21.40;69.40;;;;;;5014169;28;1220;-68
2022/09/15 05:10:25;;;;;;;;;;;21.40;69.40;;;;;;5013341;28;1155;-68
2022/09/15 05:12:50;;;;;;;;;;;21.40;69.40;;;;;;5013538;28;1187;-68
2022/09/15 05:15:16;;;;;;;;;;;21.40;69.40;;;;;;5014064;28;1938;-68
2022/09/15 05:17:41;;;;;;;;;;;21.40;69.40;;;;;;5013893;28;1176;-68
2022/09/15 05:20:07;;;;;;;;;;;21.40;69.40;;;;;;5013136;28;808;-67
2022/09/15 05:22:32;;;;;;;;;;;21.40;69.40;;;;;;5013718;28;781;-67
2022/09/15 05:24:58;;;;;;;;;;;21.40;69.40;;;;;;5013232;28;696;-67
2022/09/15 05:27:23;;;;;;;;;;;21.40;69.40;;;;;;5013847;28;707;-67
2022/09/15 05:29:48;;;;;;;;;;;21.40;69.40;;;;;;5012986;28;1227;-67
2022/09/15 05:32:14;;;;;;;;;;;21.40;69.40;;;;;;5013511;28;1264;-68
2022/09/15 05:34:39;;;;;;;;;;;21.40;69.40;;;;;;5013633;28;776;-68
2022/09/15 05:37:05;;;;;;;;;;;21.40;69.40;;;;;;5012476;28;1948;-69
2022/09/15 05:39:30;;;;;;;;;;;21.40;69.50;;;;;;5011074;28;1195;-69
2022/09/15 05:41:56;;;;;;;;;;;21.40;69.50;;;;;;5013316;28;1018;-69
2022/09/15 05:44:21;;;;;;;;;;;21.40;69.50;;;;;;5013152;28;927;-69
2022/09/15 05:46:47;;;;;;;;;;;21.40;69.50;;;;;;5013140;28;867;-69
2022/09/15 05:49:13;;;;;;;;;;;21.40;69.50;;;;;;5012959;28;1227;-69
2022/09/15 05:51:39;;;;;;;;;;;21.40;69.50;;;;;;5013318;28;859;-69
2022/09/15 05:54:04;;;;;;;;;;;21.40;69.60;;;;;;5012806;28;931;-68
2022/09/15 05:56:30;;;;;;;;;;;21.40;69.50;;;;;;5013289;28;1914;-67
2022/09/15 05:58:56;;;;;;;;;;;21.40;69.50;;;;;;5011261;28;1449;-68
2022/09/15 06:01:22;;;;;;;;;;;21.40;69.50;;;;;;5013062;28;844;-68
2022/09/15 06:03:48;;;;;;;;;;;21.40;69.50;;;;;;5013038;28;989;-68
2022/09/15 06:06:13;;;;;;;;;;;21.40;70.20;;;;;;5013232;28;836;-68
2022/09/15 06:08:39;;;;;;;;;;;21.40;69.50;;;;;;5004225;28;1633;-71
2022/09/15 06:11:09;;;;;;;;;;;21.40;69.50;;;;;;5004688;28;1727;-68
2022/09/15 06:13:34;;;;;;;;;;;21.40;69.50;;;;;;5009396;28;1129;-68
2022/09/15 06:16:06;;;;;;;;;;;21.40;69.50;;;;;;5010604;28;1959;-69
2022/09/15 06:18:33;;;;;;;;;;;21.40;69.60;;;;;;5009682;28;1201;-69
2022/09/15 06:21:01;;;;;;;;;;;21.40;69.60;;;;;;5011436;28;827;-69
2022/09/15 06:23:27;;;;;;;;;;;21.40;69.50;;;;;;4993674;28;1002;-69
2022/09/15 06:25:52;;;;;;;;;;;21.40;69.50;;;;;;5010225;28;1012;-70
2022/09/15 06:28:18;;;;;;;;;;;21.40;69.50;;;;;;5010167;28;1251;-69
2022/09/15 06:30:48;;;;;;;;;;;21.40;69.60;;;;;;5010995;28;870;-70
2022/09/15 06:33:14;;;;;;;;;;;21.40;69.50;;;;;;5010836;28;1205;-69
2022/09/15 06:35:39;;;;;;;;;;;21.40;69.60;;;;;;5010685;28;1898;-70
2022/09/15 06:38:04;;;;;;;;;;;21.40;69.50;;;;;;5010783;28;1280;-71
2022/09/15 06:40:30;;;;;;;;;;;21.40;69.50;;;;;;5010175;28;1026;-72
2022/09/15 06:42:56;;;;;;;;;;;21.40;69.50;;;;;;5010429;28;1077;-72
2022/09/15 06:45:21;;;;;;;;;;;21.40;69.50;;;;;;5010792;28;685;-72
2022/09/15 06:47:46;;;;;;;;;;;21.40;69.50;;;;;;5010985;28;1259;-71
2022/09/15 06:50:12;;;;;;;;;;;21.40;69.60;;;;;;5009811;28;903;-70
2022/09/15 06:52:38;;;;;;;;;;;21.40;69.60;;;;;;5011032;28;839;-71
2022/09/15 06:55:04;;;;;;;;;;;21.40;69.60;;;;;;5012016;28;1943;-70
2022/09/15 06:57:29;;;;;;;;;;;21.40;69.60;;;;;;5012151;28;819;-71
2022/09/15 06:59:55;;;;;;;;;;;21.40;69.60;;;;;;5012010;28;1219;-71
2022/09/15 07:02:20;;;;;;;;;;;21.40;69.60;;;;;;5012857;28;883;-70
2022/09/15 07:04:45;;;;;;;;;;;21.40;69.60;;;;;;5012655;28;891;-70
2022/09/15 07:07:11;;;;;;;;;;;21.40;69.60;;;;;;5012086;28;840;-70
2022/09/15 07:09:37;;;;;;;;;;;21.40;69.60;;;;;;5011949;28;1184;-70
2022/09/15 07:12:03;;;;;;;;;;;21.40;69.60;;;;;;5012142;28;800;-70
2022/09/15 07:14:28;;;;;;;;;;;21.40;69.60;;;;;;5012138;28;789;-68
2022/09/15 07:16:54;;;;;;;;;;;21.40;69.60;;;;;;5012133;28;1902;-68
2022/09/15 07:19:19;;;;;;;;;;;21.40;69.60;;;;;;5011819;28;1244;-68
2022/09/15 07:21:45;;;;;;;;;;;21.40;70.30;;;;;;5012400;28;696;-68
2022/09/15 07:24:11;;;;;;;;;;;21.40;70.30;;;;;;5013347;28;702;-68
2022/09/15 07:26:37;;;;;;;;;;;21.40;69.60;;;;;;5016065;28;835;-70
2022/09/15 07:29:03;;;;;;;;;;;21.40;69.60;;;;;;5000781;28;1269;-70
2022/09/15 07:31:29;;;;;;;;;;;21.40;69.60;;;;;;4981764;28;1345;-70
2022/09/15 07:33:55;;;;;;;;;;;21.40;69.60;;;;;;5014650;28;812;-70
2022/09/15 07:36:20;;;;;;;;;;;21.40;69.60;;;;;;5003706;28;1965;-69
2022/09/15 07:38:46;;;;;;;;;;;21.40;69.60;;;;;;5014771;28;1271;-69
2022/09/15 07:41:13;;;;;;;;;;;21.40;69.60;;;;;;4997936;28;1332;-69
2022/09/15 07:43:38;;;;;;;;;;;21.40;69.60;;;;;;4997887;28;856;-69
2022/09/15 07:46:04;;;;;;;;;;;21.40;69.60;;;;;;5015641;28;815;-69
2022/09/15 07:48:30;;;;;;;;;;;21.40;69.60;;;;;;4996159;28;2188;-69
2022/09/15 07:50:56;;;;;;;;;;;21.40;69.70;;;;;;5009851;28;1231;-69
2022/09/15 07:53:21;;;;;;;;;;;21.40;69.60;;;;;;5015434;28;1154;-69
2022/09/15 07:55:53;;;;;;;;;;;21.40;69.70;;;;;;5015381;28;1898;-69
2022/09/15 07:58:19;;;;;;;;;;;21.40;69.70;;;;;;5013976;28;1313;-71
2022/09/15 08:00:46;;;;;;;;;;;21.40;69.70;;;;;;4997707;28;910;-71
2022/09/15 08:03:12;;;;;;;;;;;21.40;69.70;;;;;;5015387;28;923;-72
2022/09/15 08:05:37;;;;;;;;;;;21.40;69.70;;;;;;5015141;28;752;-73
2022/09/15 08:08:02;;;;;;;;;;;21.40;69.70;;;;;;4997044;28;1288;-72
2022/09/15 08:10:28;;;;;;;;;;;21.40;69.80;;;;;;5014358;28;855;-72
2022/09/15 08:12:53;;;;;;;;;;;21.40;69.80;;;;;;5014826;28;883;-71
2022/09/15 08:15:19;;;;;;;;;;;21.40;69.80;;;;;;5015193;28;1967;-71
2022/09/15 08:17:45;;;;;;;;;;;21.40;69.80;;;;;;5015003;28;1254;-71
2022/09/15 08:20:11;;;;;;;;;;;21.40;69.80;;;;;;4997055;28;851;-71
2022/09/15 08:22:36;;;;;;;;;;;21.40;69.80;;;;;;5014714;28;863;-71
2022/09/15 08:25:02;;;;;;;;;;;21.40;69.80;;;;;;5014361;28;819;-71
2022/09/15 08:27:28;;;;;;;;;;;21.40;69.80;;;;;;5015003;28;1127;-71
2022/09/15 08:29:53;;;;;;;;;;;21.40;69.80;;;;;;5013826;28;1295;-70
2022/09/15 08:32:19;;;;;;;;;;;21.40;70.50;;;;;;5014464;28;1397;-71
2022/09/15 08:34:44;;;;;;;;;;;21.40;69.80;;;;;;5014936;28;943;-71
2022/09/15 08:37:09;;;;;;;;;;;21.40;69.80;;;;;;5012451;28;1895;-69
2022/09/15 08:39:35;;;;;;;;;;;21.40;69.80;;;;;;5013889;28;1199;-70
2022/09/15 08:42:00;;;;;;;;;;;21.40;69.70;;;;;;5014409;28;954;-70
2022/09/15 08:44:38;;;;;;;;;;;21.40;69.70;;;;;;5014564;28;894;-70
2022/09/15 08:47:11;;;;;;;;;;;21.40;69.70;;;;;;5014225;28;1002;-70
2022/09/15 08:49:57;;;;;;;;;;;21.40;69.70;;;;;;5012641;28;1288;-69
2022/09/15 08:52:27;;;;;;;;;;;21.40;69.70;;;;;;5014042;28;991;-70
2022/09/15 08:54:53;;;;;;;;;;;21.40;69.70;;;;;;5012894;28;1906;-70
2022/09/15 08:57:20;;;;;;;;;;;21.40;69.80;;;;;;5012870;28;1089;-70
2022/09/15 08:59:45;;;;;;;;;;;21.40;69.70;;;;;;5012390;28;1361;-70
2022/09/15 09:02:11;;;;;;;;;;;21.40;69.70;;;;;;5012246;28;1834;-70
2022/09/15 09:04:48;;;;;;;;;;;21.40;69.70;;;;;;5009067;28;1162;-70
2022/09/15 09:07:30;;;;;;;;;;;21.40;69.70;;;;;;5013708;28;1251;-70
2022/09/15 09:10:02;;;;;;;;;;;21.40;69.80;;;;;;5013660;28;1279;-70
2022/09/15 09:12:28;;;;;;;;;;;21.40;69.80;;;;;;5013859;28;824;-70
2022/09/15 09:15:16;;;;;;;;;;;21.40;69.80;;;;;;5013951;28;1891;-71
2022/09/15 09:18:00;;;;;;;;;;;21.40;69.80;;;;;;4972302;28;2288;-71
2022/09/15 09:20:44;;;;;;;;;;;21.40;69.80;;;;;;5002269;28;1905;-71
2022/09/15 09:23:12;;;;;;;;;;;21.40;69.70;;;;;;5013375;28;1324;-71
2022/09/15 09:25:37;;;;;;;;;;;21.40;69.80;;;;;;5014203;28;1217;-71
2022/09/15 09:28:04;;;;;;;;;;;21.40;69.80;;;;;;4995994;28;1398;-71
2022/09/15 09:30:30;;;;;;;;;;;21.40;69.70;;;;;;5012976;28;1156;-73
2022/09/15 09:32:58;;;;;;;;;;;21.40;69.80;;;;;;4987626;28;1643;-72
2022/09/15 09:35:31;;;;;;;;;;;21.40;69.80;;;;;;4995804;28;1910;-72
2022/09/15 09:37:58;;;;;;;;;;;21.40;69.80;;;;;;4995840;28;1271;-71
2022/09/15 09:40:24;;;;;;;;;;;21.40;69.80;;;;;;4984976;28;1251;-71
2022/09/15 09:42:49;;;;;;;;;;;21.40;69.90;;;;;;5009994;28;1072;-71
2022/09/15 09:45:15;;;;;;;;;;;21.40;69.80;;;;;;5013148;28;852;-71
2022/09/15 09:47:41;;;;;;;;;;;21.40;69.80;;;;;;5012928;28;1210;-71
2022/09/15 09:50:25;;;;;;;;;;;21.40;69.80;;;;;;4995409;28;856;-71
2022/09/15 09:52:51;;;;;;;;;;;21.40;69.80;;;;;;5011646;28;1902;-71
2022/09/15 09:55:21;;;;;;;;;;;21.40;69.80;;;;;;4979154;28;1902;-71
2022/09/15 09:57:46;;;;;;;;;;;21.40;69.80;;;;;;4992061;28;1298;-71
2022/09/15 10:00:30;;;;;;;;;;;21.40;69.80;;;;;;4992335;28;1120;-71
2022/09/15 10:02:56;;;;;;;;;;;21.40;69.80;;;;;;4992152;28;1221;-71
2022/09/15 10:05:21;;;;;;;;;;;21.40;69.80;;;;;;4992814;28;1881;-70
2022/09/15 10:07:47;;;;;;;;;;;21.40;69.80;;;;;;5011412;28;1422;-71
2022/09/15 10:10:20;;;;;;;;;;;21.40;69.80;;;;;;4992514;28;2051;-71
2022/09/15 10:12:45;;;;;;;;;;;21.40;69.90;;;;;;4993404;28;1808;-71
2022/09/15 10:15:21;;;;;;;;;;;21.40;69.90;;;;;;4995046;28;1910;-70
2022/09/15 10:17:46;;;;;;;;;;;21.40;69.90;;;;;;4995221;28;1202;-70
2022/09/15 10:20:34;;;;;;;;;;;21.40;69.90;;;;;;4994825;28;868;-70
2022/09/15 10:23:01;;;;;;;;;;;21.40;70.00;;;;;;4994956;28;1092;-70
2022/09/15 10:25:28;;;;;;;;;;;21.40;69.90;;;;;;4994904;28;1123;-71
2022/09/15 10:28:00;;;;;;;;;;;21.40;69.90;;;;;;4991795;28;1344;-70
2022/09/15 10:30:26;;;;;;;;;;;21.40;69.90;;;;;;4992652;28;1026;-71
2022/09/15 10:32:51;;;;;;;;;;;21.40;69.90;;;;;;5007752;28;1225;-71
2022/09/15 10:35:17;;;;;;;;;;;21.40;69.90;;;;;;5012205;28;1906;-71
2022/09/15 10:38:01;;;;;;;;;;;21.40;69.90;;;;;;5011610;28;1269;-71
2022/09/15 10:40:45;;;;;;;;;;;21.40;69.90;;;;;;5006892;28;2209;-71
2022/09/15 10:43:16;;;;;;;;;;;21.40;69.90;;;;;;5011270;28;1893;-71
2022/09/15 10:45:43;;;;;;;;;;;21.40;70.00;;;;;;5012650;28;1254;-71
2022/09/15 10:48:14;;;;;;;;;;;21.40;70.00;;;;;;4994822;28;1386;-70
2022/09/15 10:50:58;;;;;;;;;;;21.40;70.10;;;;;;4995193;28;545;-70
2022/09/15 10:53:42;;;;;;;;;;;21.40;70.00;;;;;;5012478;28;1075;-71
2022/09/15 10:56:24;;;;;;;;;;;21.40;70.00;;;;;;5012252;28;1910;-71
2022/09/15 10:59:08;;;;;;;;;;;21.40;70.00;;;;;;4995239;28;1224;-71
2022/09/15 11:01:43;;;;;;;;;;;21.40;70.00;;;;;;5016471;28;1006;-71
2022/09/15 11:04:23;;;;;;;;;;;21.40;69.90;;;;;;4997837;28;1292;-75
2022/09/15 11:06:53;;;;;;;;;;;21.40;70.00;;;;;;4996764;28;1280;-73
2022/09/15 11:09:24;;;;;;;;;;;21.40;70.00;;;;;;4983738;28;1464;-70
2022/09/15 11:12:08;;;;;;;;;;;21.40;70.00;;;;;;4991197;28;1909;-72
2022/09/15 11:14:43;;;;;;;;;;;21.40;70.00;;;;;;5012500;28;1379;-71
2022/09/15 11:17:08;;;;;;;;;;;21.40;70.00;;;;;;5012905;28;1891;-69
2022/09/15 11:19:54;;;;;;;;;;;21.40;70.10;;;;;;5012377;28;1300;-70
2022/09/15 11:22:28;;;;;;;;;;;21.40;70.10;;;;;;5000767;28;1581;-70
2022/09/15 11:24:57;;;;;;;;;;;21.40;70.10;;;;;;5013742;28;967;-70
2022/09/15 11:27:27;;;;;;;;;;;21.40;70.10;;;;;;4997614;28;1201;-70
2022/09/15 11:30:06;;;;;;;;;;;21.40;70.10;;;;;;4975280;28;1230;-70
2022/09/15 11:32:46;;;;;;;;;;;21.40;70.00;;;;;;5007108;28;2138;-70
2022/09/15 11:35:25;;;;;;;;;;;21.40;70.00;;;;;;4994052;28;1957;-70
2022/09/15 11:37:50;;;;;;;;;;;21.40;70.10;;;;;;5010745;28;1288;-70
2022/09/15 11:40:17;;;;;;;;;;;21.40;70.00;;;;;;4993885;28;1301;-70
2022/09/15 11:42:45;;;;;;;;;;;21.40;70.00;;;;;;4992268;28;1260;-70
2022/09/15 11:45:14;;;;;;;;;;;21.40;70.10;;;;;;5011802;28;1228;-70
2022/09/15 11:47:41;;;;;;;;;;;21.40;70.10;;;;;;5007680;28;1740;-71
2022/09/15 11:50:10;;;;;;;;;;;21.40;70.10;;;;;;4983319;28;2157;-71
2022/09/15 11:52:35;;;;;;;;;;;21.40;70.10;;;;;;5009588;28;1161;-71
2022/09/15 11:55:02;;;;;;;;;;;21.40;70.10;;;;;;5010463;28;1949;-71
2022/09/15 11:57:30;;;;;;;;;;;21.40;70.10;;;;;;4994542;28;1201;-70
2022/09/15 12:00:07;;;;;;;;;;;21.40;70.10;;;;;;4992165;28;1297;-71
2022/09/15 12:02:46;;;;;;;;;;;21.40;70.10;;;;;;4976097;28;1210;-70
2022/09/15 12:05:14;;;;;;;;;;;21.40;70.10;;;;;;4994346;28;1213;-70
2022/09/15 12:07:42;;;;;;;;;;;21.40;70.10;;;;;;5011226;28;1361;-74
2022/09/15 12:10:31;;;;;;;;;;;21.40;70.20;;;;;;4993228;28;1213;-70
2022/09/15 12:12:57;;;;;;;;;;;21.40;70.20;;;;;;5004475;28;1260;-67
2022/09/15 12:15:26;;;;;;;;;;;21.40;70.10;;;;;;4994917;28;1964;-68
2022/09/15 12:17:54;;;;;;;;;;;21.40;70.10;;;;;;4995477;28;1261;-70
2022/09/15 12:20:23;;;;;;;;;;;21.40;70.20;;;;;;4994848;28;879;-70
2022/09/15 12:22:58;;;;;;;;;;;21.40;70.20;;;;;;5012713;28;745;-72
2022/09/15 12:25:29;;;;;;;;;;;21.40;70.20;;;;;;4993505;28;813;-73
2022/09/15 12:28:13;;;;;;;;;;;21.40;70.20;;;;;;4992080;28;1372;-71
2022/09/15 12:30:39;;;;;;;;;;;21.40;70.20;;;;;;4992925;28;931;-68
2022/09/15 12:33:24;;;;;;;;;;;21.40;70.20;;;;;;5007466;28;1213;-68
2022/09/15 12:35:49;;;;;;;;;;;21.40;70.20;;;;;;5012475;28;1906;-69
2022/09/15 12:38:15;;;;;;;;;;;21.40;70.20;;;;;;5011970;28;1213;-68
2022/09/15 12:40:40;;;;;;;;;;;21.40;70.30;;;;;;5012734;28;800;-68
2022/09/15 12:43:12;;;;;;;;;;;21.40;70.20;;;;;;5010770;28;1264;-69
2022/09/15 12:45:38;;;;;;;;;;;21.40;70.20;;;;;;5012388;28;808;-69
2022/09/15 12:48:12;;;;;;;;;;;21.40;70.20;;;;;;4991506;28;1256;-68
2022/09/15 12:50:38;;;;;;;;;;;21.40;70.20;;;;;;5012094;28;799;-70
2022/09/15 12:53:23;;;;;;;;;;;21.40;70.30;;;;;;4994166;28;1209;-70
2022/09/15 12:55:49;;;;;;;;;;;21.40;70.30;;;;;;4992787;28;1952;-70
2022/09/15 12:58:17;;;;;;;;;;;21.40;70.30;;;;;;4993303;28;1245;-71
2022/09/15 13:00:43;;;;;;;;;;;21.40;70.30;;;;;;5011015;28;1208;-70
2022/09/15 13:03:25;;;;;;;;;;;21.40;70.20;;;;;;4993028;28;1197;-70
2022/09/15 13:05:51;;;;;;;;;;;21.40;70.20;;;;;;5025921;22;1945;-69
2022/09/15 13:08:22;;;;;;;;;;;21.40;70.20;;;;;;5030885;28;1104;-69
2022/09/15 13:11:03;;;;;;;;;;;21.40;70.20;;;;;;5027489;28;1271;-69
2022/09/15 13:13:42;;;;;;;;;;;21.40;70.20;;;;;;5009797;28;1019;-71
2022/09/15 13:16:12;;;;;;;;;;;21.40;70.20;;;;;;5009536;28;1914;-70
2022/09/15 13:18:38;;;;;;;;;;;21.40;70.20;;;;;;4975918;28;1296;-69
2022/09/15 13:21:05;;;;;;;;;;;21.40;70.20;;;;;;4976847;28;1170;-69
2022/09/15 13:23:32;;;;;;;;;;;21.40;70.20;;;;;;5008597;28;1217;-70
2022/09/15 13:25:58;;;;;;;;;;;21.40;70.20;;;;;;4993041;28;1252;-69
2022/09/15 13:28:23;;;;;;;;;;;21.40;70.20;;;;;;4991628;28;1221;-69
2022/09/15 13:30:58;;;;;;;;;;;21.40;70.20;;;;;;5010461;28;1146;-69
2022/09/15 13:33:24;;;;;;;;;;;21.40;70.20;;;;;;5009422;28;1205;-69
2022/09/15 13:35:50;;;;;;;;;;;21.40;70.30;;;;;;5009787;28;1942;-69
2022/09/15 13:38:28;;;;;;;;;;;21.40;70.40;;;;;;4992187;28;1220;-69
2022/09/15 13:41:12;;;;;;;;;;;21.40;70.40;;;;;;5008039;28;1186;-68
2022/09/15 13:43:53;;;;;;;;;;;21.50;70.40;;;;;;5008011;28;1249;-69
2022/09/15 13:46:18;;;;;;;;;;;21.50;70.40;;;;;;5008692;28;1272;-68
2022/09/15 13:49:07;;;;;;;;;;;21.40;70.40;;;;;;5010026;28;1205;-69
2022/09/15 13:51:32;;;;;;;;;;;21.40;70.40;;;;;;4973913;28;1241;-68
2022/09/15 13:53:59;;;;;;;;;;;21.40;70.40;;;;;;5009727;28;1213;-68
2022/09/15 13:56:24;;;;;;;;;;;21.40;70.40;;;;;;4992694;28;1883;-69
2022/09/15 13:58:50;;;;;;;;;;;21.50;70.40;;;;;;5010416;28;1245;-69
2022/09/15 14:01:16;;;;;;;;;;;21.40;70.50;;;;;;4993104;28;1178;-70
2022/09/15 14:03:46;;;;;;;;;;;21.40;70.40;;;;;;5009645;28;1439;-68
2022/09/15 14:06:47;;;;;;;;;;;21.40;70.30;;;;;;5010618;28;1244;-68
2022/09/15 14:09:15;;;;;;;;;;;21.40;70.40;;;;;;4929803;29;1349;-68
2022/09/15 14:11:41;;;;;;;;;;;21.40;70.40;;;;;;4995621;28;1305;-69
2022/09/15 14:14:09;;;;;;;;;;;21.40;70.40;;;;;;4992935;28;1269;-68
2022/09/15 14:16:35;;;;;;;;;;;21.40;70.40;;;;;;4993046;28;1911;-69
2022/09/15 14:19:03;;;;;;;;;;;21.40;70.30;;;;;;4992406;28;1190;-69
2022/09/15 14:21:32;;;;;;;;;;;21.50;70.40;;;;;;4992169;28;1286;-69
2022/09/15 14:23:59;;;;;;;;;;;21.50;70.40;;;;;;4993772;28;1035;-68
2022/09/15 14:26:26;;;;;;;;;;;21.40;70.40;;;;;;4995246;28;1320;-68
2022/09/15 14:28:52;;;;;;;;;;;21.40;71.10;;;;;;4994606;28;1281;-70
2022/09/15 14:31:25;;;;;;;;;;;21.40;70.30;;;;;;4994504;28;1403;-68
2022/09/15 14:33:50;;;;;;;;;;;21.40;70.30;;;;;;4992417;28;1201;-68
2022/09/15 14:36:26;;;;;;;;;;;21.40;70.20;;;;;;4994208;28;1906;-68
2022/09/15 14:39:21;;;;;;;;;;;21.40;70.30;;;;;;5008190;28;2001;-67
2022/09/15 14:41:47;;;;;;;;;;;21.40;70.30;;;;;;5002834;28;1930;-67
2022/09/15 14:44:20;;;;;;;;;;;21.40;70.30;;;;;;4993684;28;1201;-67